createdAt,value
2018-08-17T00:08:10.662Z,69.2
2018-08-17T00:24:56.401Z,69.6
2018-08-17T00:41:42.376Z,69.6
2018-08-17T00:58:28.333Z,69.6
2018-08-17T01:15:14.139Z,69.6
2018-08-17T01:32:00.024Z,69.6
2018-08-17T01:48:45.817Z,70.0
2018-08-17T02:22:17.040Z,70.8
2018-08-17T02:39:02.093Z,70.8
2018-08-17T02:55:46.929Z,71.6
2018-08-17T03:12:31.627Z,72.4
2018-08-17T03:29:16.273Z,72.8
2018-08-17T03:46:00.917Z,73.6
2018-08-17T04:02:45.584Z,73.6
2018-08-17T04:19:30.233Z,73.6
2018-08-17T04:36:15.089Z,73.6
2018-08-17T04:52:59.935Z,73.6
2018-08-17T05:09:44.871Z,74.0
2018-08-17T05:26:29.858Z,74.0
2018-08-17T05:43:14.997Z,74.0
2018-08-17T06:00:00.277Z,74.0
2018-08-17T06:16:45.444Z,74.4
2018-08-17T06:33:30.411Z,75.2
2018-08-17T06:50:15.343Z,76.8
2018-08-17T07:07:00.532Z,78.4
2018-08-17T07:23:45.371Z,78.4
2018-08-17T07:40:30.532Z,78.8
2018-08-17T07:57:15.673Z,79.6
2018-08-17T08:14:00.495Z,80.0
2018-08-17T08:30:45.406Z,80.8
2018-08-17T08:40:48.605Z,80.4
2018-08-17T08:50:52.076Z,80.0
2018-08-17T08:57:34.746Z,79.6
2018-08-17T09:07:38.871Z,78.4
2018-08-17T09:17:43.312Z,77.6
2018-08-17T09:34:31.037Z,76.4
2018-08-17T09:51:18.934Z,75.2
2018-08-17T10:08:06.626Z,75.6
2018-08-17T10:24:54.170Z,75.6
2018-08-17T10:41:41.339Z,75.2
2018-08-17T10:51:46.158Z,74.4
2018-08-17T11:25:23.188Z,72.8
2018-08-17T11:42:10.844Z,73.6
2018-08-17T11:52:15.879Z,73.2
2018-08-17T12:09:04.694Z,71.6
2018-08-17T12:25:53.395Z,71.2
2018-08-17T12:42:41.255Z,70.8
2018-08-17T12:52:46.235Z,70.0
2018-08-17T13:26:24.424Z,67.6
2018-08-17T13:39:52.198Z,65.6
2018-08-17T13:56:41.636Z,65.2
2018-08-17T14:10:09.657Z,63.2
2018-08-17T14:23:36.152Z,60.8
2018-08-17T14:40:25.130Z,60.8
2018-08-17T14:50:30.415Z,60.4
2018-08-17T14:57:14.212Z,58.4
2018-08-17T15:14:04.044Z,57.2
2018-08-17T15:27:32.065Z,56.4
2018-08-17T15:34:15.769Z,56.4
2018-08-17T15:51:04.705Z,56.0
2018-08-17T16:01:10.244Z,54.8
2018-08-17T16:17:59.701Z,53.6
2018-08-17T16:31:27.650Z,53.6
2018-08-17T16:48:17.092Z,52.8
2018-08-17T17:05:06.367Z,52.4
2018-08-17T17:11:50.256Z,52.4
2018-08-17T17:28:40.561Z,51.6
2018-08-17T17:45:29.866Z,52.0
2018-08-17T18:02:18.545Z,53.6
2018-08-17T18:19:06.879Z,53.6
2018-08-17T18:35:54.757Z,55.2
2018-08-17T19:02:46.406Z,57.6
2018-08-17T19:19:33.187Z,58.8
2018-08-17T19:36:19.254Z,60.0
2018-08-17T19:53:05.191Z,62.0
2018-08-17T20:09:50.720Z,62.8
2018-08-17T20:26:36.356Z,63.6
2018-08-17T20:43:21.144Z,64.4
2018-08-17T21:00:06.231Z,64.8
2018-08-17T21:16:51.172Z,65.2
2018-08-17T21:33:35.985Z,65.6
2018-08-17T21:50:20.677Z,66.0
2018-08-17T22:07:05.192Z,66.0
2018-08-17T22:23:49.701Z,66.0
2018-08-17T22:40:33.944Z,66.4
2018-08-17T22:57:18.201Z,66.4
2018-08-17T23:14:02.295Z,66.4
2018-08-17T23:30:46.421Z,66.8
2018-08-17T23:47:30.653Z,67.2
